This is the latest recevied weather packets stored in our database for station/object SM6LNJ-13. If no packets are shown the sender has not sent any weather packets the latest 10 day(s).
| Time | Temp. | Humidity | Pressure | Rain* | Wind** | Luminosity | Snow |
|---|---|---|---|---|---|---|---|
| 1778205586 | 1.11° C | 86% | 1472.6 hPa | 0 mm | - | - | - |
| 1778205473 | 1.11° C | 86% | 1472.4 hPa | 0 mm | - | - | - |
| 1778205113 | 0.56° C | 86% | 1475.7 hPa | 0 mm | - | - | - |
| 1778204274 | 1.11° C | 86% | 1472.8 hPa | 0 mm | - | - | - |
| 1778204153 | 1.11° C | 86% | 1472.8 hPa | 0 mm | - | - | - |
| 1778203912 | 1.11° C | 86% | 1469.9 hPa | 0 mm | - | - | - |
| 1778203552 | 1.11° C | 85% | 1469.9 hPa | 0 mm | - | - | - |
| 1778203433 | 1.11° C | 85% | 1469.9 hPa | 0 mm | - | - | - |
| 1778202952 | 1.11° C | 85% | 1472.8 hPa | 0 mm | - | - | - |
| 1778202833 | 1.11° C | 85% | 1473 hPa | 0 mm | - | - | - |
| 1778202712 | 1.11° C | 85% | 1469.8 hPa | 0 mm | - | - | - |
| 1778202232 | 1.67° C | 85% | 1463.7 hPa | 0 mm | - | - | - |
| 1778202112 | 1.67° C | 85% | 1460.5 hPa | 0 mm | - | - | - |
| 1778201992 | 1.67° C | 85% | 1460.7 hPa | 0 mm | - | - | - |
| 1778197073 | 2.22° C | 81% | 1441.8 hPa | 0 mm | - | - | - |
| 1778196346 | 2.78° C | 80% | 1429 hPa | 0 mm | - | - | - |
| 1778192986 | 3.33° C | 75% | 1416.7 hPa | 0 mm | - | - | - |
| 1778188185 | 4.44° C | 71% | 1412.5 hPa | 0 mm | - | - | - |
| 1778185673 | 5° C | 67% | 1411 hPa | 0 mm | - | - | - |
| 1778185553 | 5° C | 66% | 1414.5 hPa | 0 mm | - | - | - |
| 1778185313 | 5.56° C | 66% | 1411.7 hPa | 0 mm | - | - | - |
| 1778184953 | 5.56° C | 65% | 1412.4 hPa | 0 mm | - | - | - |
| 1778184713 | 5.56° C | 64% | 1412.6 hPa | 0 mm | - | - | - |
| 1778184353 | 6.11° C | 63% | 1413.4 hPa | 0 mm | - | - | - |
| 1778184233 | 6.11° C | 63% | 1413.8 hPa | 0 mm | - | - | - |
* Rain latest hour (hover to see other rain measurements)
** Current wind speed in m/s (hover to see current wind gust speed)